sensor_id;sensor_type;location;lat;lon;timestamp;P1;durP1;ratioP1;P2;durP2;ratioP2
16385;SDS011;8302;51.154;4.456;2023-09-08T00:00:57;4.78;;;3.25;;
16385;SDS011;8302;51.154;4.456;2023-09-08T00:03:24;1.80;;;1.10;;
16385;SDS011;8302;51.154;4.456;2023-09-08T00:05:52;3.38;;;1.63;;
16385;SDS011;8302;51.154;4.456;2023-09-08T00:08:21;5.25;;;3.60;;
16385;SDS011;8302;51.154;4.456;2023-09-08T00:10:50;4.30;;;2.53;;
16385;SDS011;8302;51.154;4.456;2023-09-08T00:13:18;2.10;;;1.50;;
16385;SDS011;8302;51.154;4.456;2023-09-08T00:15:46;7.00;;;3.60;;
16385;SDS011;8302;51.154;4.456;2023-09-08T00:18:13;5.13;;;2.63;;
16385;SDS011;8302;51.154;4.456;2023-09-08T00:20:41;6.00;;;4.13;;
16385;SDS011;8302;51.154;4.456;2023-09-08T00:23:09;3.75;;;2.45;;
16385;SDS011;8302;51.154;4.456;2023-09-08T00:25:38;4.97;;;3.42;;
16385;SDS011;8302;51.154;4.456;2023-09-08T00:28:06;10.60;;;4.07;;
16385;SDS011;8302;51.154;4.456;2023-09-08T00:30:34;2.45;;;1.50;;
16385;SDS011;8302;51.154;4.456;2023-09-08T00:33:02;2.55;;;1.88;;
16385;SDS011;8302;51.154;4.456;2023-09-08T00:35:30;3.97;;;2.58;;
16385;SDS011;8302;51.154;4.456;2023-09-08T00:37:57;3.88;;;2.42;;
16385;SDS011;8302;51.154;4.456;2023-09-08T00:40:26;1.77;;;1.10;;
16385;SDS011;8302;51.154;4.456;2023-09-08T00:42:55;3.83;;;2.70;;
16385;SDS011;8302;51.154;4.456;2023-09-08T00:45:23;7.70;;;4.20;;
16385;SDS011;8302;51.154;4.456;2023-09-08T00:47:51;4.38;;;2.88;;
16385;SDS011;8302;51.154;4.456;2023-09-08T00:50:19;5.97;;;4.22;;
16385;SDS011;8302;51.154;4.456;2023-09-08T00:52:47;4.90;;;3.35;;
16385;SDS011;8302;51.154;4.456;2023-09-08T00:55:14;4.45;;;2.80;;
16385;SDS011;8302;51.154;4.456;2023-09-08T00:57:42;4.90;;;2.35;;
16385;SDS011;8302;51.154;4.456;2023-09-08T01:00:12;5.40;;;3.70;;
16385;SDS011;8302;51.154;4.456;2023-09-08T01:02:40;6.20;;;2.85;;
16385;SDS011;8302;51.154;4.456;2023-09-08T01:05:09;2.15;;;1.75;;
16385;SDS011;8302;51.154;4.456;2023-09-08T01:07:37;6.72;;;3.15;;
16385;SDS011;8302;51.154;4.456;2023-09-08T01:10:05;6.10;;;2.85;;
16385;SDS011;8302;51.154;4.456;2023-09-08T01:12:33;1.85;;;1.58;;
16385;SDS011;8302;51.154;4.456;2023-09-08T01:15:01;1.33;;;1.23;;
16385;SDS011;8302;51.154;4.456;2023-09-08T01:17:31;5.90;;;2.95;;
16385;SDS011;8302;51.154;4.456;2023-09-08T01:20:00;3.60;;;2.83;;
16385;SDS011;8302;51.154;4.456;2023-09-08T01:22:35;3.10;;;2.17;;
16385;SDS011;8302;51.154;4.456;2023-09-08T01:27:53;3.05;;;2.35;;
16385;SDS011;8302;51.154;4.456;2023-09-08T01:30:21;3.42;;;2.33;;
16385;SDS011;8302;51.154;4.456;2023-09-08T01:32:50;2.92;;;1.45;;
16385;SDS011;8302;51.154;4.456;2023-09-08T01:35:18;7.50;;;3.72;;
16385;SDS011;8302;51.154;4.456;2023-09-08T01:37:47;6.43;;;3.83;;
16385;SDS011;8302;51.154;4.456;2023-09-08T01:40:15;5.78;;;1.67;;
16385;SDS011;8302;51.154;4.456;2023-09-08T01:42:44;7.80;;;2.45;;
16385;SDS011;8302;51.154;4.456;2023-09-08T01:45:13;5.82;;;3.95;;
16385;SDS011;8302;51.154;4.456;2023-09-08T01:47:41;1.15;;;0.85;;
16385;SDS011;8302;51.154;4.456;2023-09-08T01:50:09;2.22;;;1.73;;
16385;SDS011;8302;51.154;4.456;2023-09-08T01:52:37;3.67;;;2.17;;
16385;SDS011;8302;51.154;4.456;2023-09-08T01:55:05;5.03;;;2.50;;
16385;SDS011;8302;51.154;4.456;2023-09-08T01:57:34;3.05;;;2.28;;
16385;SDS011;8302;51.154;4.456;2023-09-08T02:00:02;2.22;;;1.58;;
16385;SDS011;8302;51.154;4.456;2023-09-08T02:02:39;7.22;;;4.00;;
16385;SDS011;8302;51.154;4.456;2023-09-08T02:05:07;5.88;;;2.17;;
16385;SDS011;8302;51.154;4.456;2023-09-08T02:07:36;3.78;;;0.93;;
16385;SDS011;8302;51.154;4.456;2023-09-08T02:10:04;2.90;;;1.60;;
16385;SDS011;8302;51.154;4.456;2023-09-08T02:12:31;3.35;;;2.28;;
16385;SDS011;8302;51.154;4.456;2023-09-08T02:14:59;2.67;;;2.00;;
16385;SDS011;8302;51.154;4.456;2023-09-08T02:17:27;2.28;;;1.38;;
16385;SDS011;8302;51.154;4.456;2023-09-08T02:19:56;4.88;;;2.03;;
16385;SDS011;8302;51.154;4.456;2023-09-08T02:22:24;4.10;;;3.10;;
16385;SDS011;8302;51.154;4.456;2023-09-08T02:24:52;6.97;;;1.75;;
16385;SDS011;8302;51.154;4.456;2023-09-08T02:27:20;8.50;;;3.20;;
16385;SDS011;8302;51.154;4.456;2023-09-08T02:29:50;4.07;;;2.35;;
16385;SDS011;8302;51.154;4.456;2023-09-08T02:32:17;3.53;;;2.30;;
16385;SDS011;8302;51.154;4.456;2023-09-08T02:34:45;1.23;;;0.93;;
16385;SDS011;8302;51.154;4.456;2023-09-08T02:37:17;6.03;;;2.80;;
16385;SDS011;8302;51.154;4.456;2023-09-08T02:39:45;2.03;;;1.33;;
16385;SDS011;8302;51.154;4.456;2023-09-08T02:42:13;2.30;;;1.48;;
16385;SDS011;8302;51.154;4.456;2023-09-08T02:44:41;5.50;;;2.53;;
16385;SDS011;8302;51.154;4.456;2023-09-08T02:47:09;2.65;;;2.20;;
16385;SDS011;8302;51.154;4.456;2023-09-08T02:49:38;1.20;;;1.10;;
16385;SDS011;8302;51.154;4.456;2023-09-08T02:52:06;5.82;;;2.63;;
16385;SDS011;8302;51.154;4.456;2023-09-08T02:54:35;11.25;;;3.30;;
16385;SDS011;8302;51.154;4.456;2023-09-08T02:57:03;1.40;;;1.08;;
16385;SDS011;8302;51.154;4.456;2023-09-08T02:59:31;4.03;;;2.67;;
16385;SDS011;8302;51.154;4.456;2023-09-08T03:02:00;3.85;;;3.05;;
16385;SDS011;8302;51.154;4.456;2023-09-08T03:04:28;5.43;;;3.55;;
16385;SDS011;8302;51.154;4.456;2023-09-08T03:06:56;2.03;;;1.40;;
16385;SDS011;8302;51.154;4.456;2023-09-08T03:09:25;1.13;;;0.70;;
16385;SDS011;8302;51.154;4.456;2023-09-08T03:11:54;0.93;;;0.93;;
16385;SDS011;8302;51.154;4.456;2023-09-08T03:14:21;1.00;;;0.77;;
16385;SDS011;8302;51.154;4.456;2023-09-08T03:16:49;3.92;;;3.22;;
16385;SDS011;8302;51.154;4.456;2023-09-08T03:19:17;2.45;;;1.48;;
16385;SDS011;8302;51.154;4.456;2023-09-08T03:21:45;3.00;;;2.00;;
16385;SDS011;8302;51.154;4.456;2023-09-08T03:24:12;2.95;;;2.33;;
16385;SDS011;8302;51.154;4.456;2023-09-08T03:26:40;2.00;;;1.73;;
16385;SDS011;8302;51.154;4.456;2023-09-08T03:29:09;1.15;;;1.05;;
16385;SDS011;8302;51.154;4.456;2023-09-08T03:31:37;5.65;;;2.85;;
16385;SDS011;8302;51.154;4.456;2023-09-08T03:34:06;2.08;;;1.20;;
16385;SDS011;8302;51.154;4.456;2023-09-08T03:36:34;4.53;;;3.40;;
16385;SDS011;8302;51.154;4.456;2023-09-08T03:39:03;3.13;;;1.73;;
16385;SDS011;8302;51.154;4.456;2023-09-08T03:41:31;1.50;;;1.23;;
16385;SDS011;8302;51.154;4.456;2023-09-08T03:43:58;3.53;;;2.60;;
16385;SDS011;8302;51.154;4.456;2023-09-08T03:46:27;1.30;;;1.02;;
16385;SDS011;8302;51.154;4.456;2023-09-08T03:48:55;1.90;;;1.70;;
16385;SDS011;8302;51.154;4.456;2023-09-08T03:51:27;4.45;;;1.98;;
16385;SDS011;8302;51.154;4.456;2023-09-08T03:53:55;0.85;;;0.80;;
16385;SDS011;8302;51.154;4.456;2023-09-08T03:56:23;4.03;;;2.13;;
16385;SDS011;8302;51.154;4.456;2023-09-08T03:58:51;0.75;;;0.70;;
16385;SDS011;8302;51.154;4.456;2023-09-08T04:01:19;1.00;;;0.90;;
16385;SDS011;8302;51.154;4.456;2023-09-08T04:03:48;0.88;;;0.57;;
16385;SDS011;8302;51.154;4.456;2023-09-08T04:06:16;2.47;;;1.42;;
16385;SDS011;8302;51.154;4.456;2023-09-08T04:08:44;2.45;;;1.80;;
16385;SDS011;8302;51.154;4.456;2023-09-08T04:11:12;1.13;;;1.00;;
16385;SDS011;8302;51.154;4.456;2023-09-08T04:13:40;1.63;;;1.45;;
16385;SDS011;8302;51.154;4.456;2023-09-08T04:16:08;2.65;;;2.10;;
16385;SDS011;8302;51.154;4.456;2023-09-08T04:18:36;1.20;;;1.10;;
16385;SDS011;8302;51.154;4.456;2023-09-08T04:21:07;4.07;;;1.88;;
16385;SDS011;8302;51.154;4.456;2023-09-08T04:23:35;3.35;;;2.30;;
16385;SDS011;8302;51.154;4.456;2023-09-08T04:26:03;5.97;;;2.60;;
16385;SDS011;8302;51.154;4.456;2023-09-08T04:28:31;5.90;;;2.38;;
16385;SDS011;8302;51.154;4.456;2023-09-08T04:30:58;3.38;;;2.05;;
16385;SDS011;8302;51.154;4.456;2023-09-08T04:33:26;3.83;;;2.60;;
16385;SDS011;8302;51.154;4.456;2023-09-08T04:35:55;3.38;;;1.17;;
16385;SDS011;8302;51.154;4.456;2023-09-08T04:38:25;1.98;;;1.52;;
16385;SDS011;8302;51.154;4.456;2023-09-08T04:40:52;1.98;;;1.80;;
16385;SDS011;8302;51.154;4.456;2023-09-08T04:43:20;3.90;;;2.30;;
16385;SDS011;8302;51.154;4.456;2023-09-08T04:45:48;1.85;;;1.25;;
16385;SDS011;8302;51.154;4.456;2023-09-08T04:48:17;2.67;;;0.93;;
16385;SDS011;8302;51.154;4.456;2023-09-08T04:50:45;2.30;;;1.38;;
16385;SDS011;8302;51.154;4.456;2023-09-08T04:53:13;2.83;;;2.10;;
16385;SDS011;8302;51.154;4.456;2023-09-08T04:55:42;1.20;;;1.10;;
16385;SDS011;8302;51.154;4.456;2023-09-08T04:58:10;1.13;;;1.02;;
16385;SDS011;8302;51.154;4.456;2023-09-08T05:00:39;1.83;;;1.40;;
16385;SDS011;8302;51.154;4.456;2023-09-08T05:03:07;2.17;;;1.67;;
16385;SDS011;8302;51.154;4.456;2023-09-08T05:05:36;3.65;;;2.35;;
16385;SDS011;8302;51.154;4.456;2023-09-08T05:08:05;0.88;;;0.80;;
16385;SDS011;8302;51.154;4.456;2023-09-08T05:10:33;2.15;;;1.33;;
16385;SDS011;8302;51.154;4.456;2023-09-08T05:13:02;1.95;;;1.30;;
16385;SDS011;8302;51.154;4.456;2023-09-08T05:15:39;1.30;;;0.77;;
16385;SDS011;8302;51.154;4.456;2023-09-08T05:18:09;0.93;;;0.90;;
16385;SDS011;8302;51.154;4.456;2023-09-08T05:20:37;2.28;;;1.80;;
16385;SDS011;8302;51.154;4.456;2023-09-08T05:23:06;2.40;;;1.77;;
16385;SDS011;8302;51.154;4.456;2023-09-08T05:25:33;3.33;;;1.40;;
16385;SDS011;8302;51.154;4.456;2023-09-08T05:28:03;4.32;;;2.83;;
16385;SDS011;8302;51.154;4.456;2023-09-08T05:30:31;7.07;;;3.30;;
16385;SDS011;8302;51.154;4.456;2023-09-08T05:32:59;4.50;;;1.73;;
16385;SDS011;8302;51.154;4.456;2023-09-08T05:35:27;3.47;;;1.20;;
16385;SDS011;8302;51.154;4.456;2023-09-08T05:37:54;4.85;;;2.25;;
16385;SDS011;8302;51.154;4.456;2023-09-08T05:40:23;12.85;;;3.10;;
16385;SDS011;8302;51.154;4.456;2023-09-08T05:42:52;5.63;;;2.42;;
16385;SDS011;8302;51.154;4.456;2023-09-08T05:45:22;3.97;;;2.03;;
16385;SDS011;8302;51.154;4.456;2023-09-08T05:47:52;6.53;;;3.20;;
16385;SDS011;8302;51.154;4.456;2023-09-08T05:50:20;8.98;;;3.40;;
16385;SDS011;8302;51.154;4.456;2023-09-08T05:52:49;5.03;;;2.20;;
16385;SDS011;8302;51.154;4.456;2023-09-08T05:55:17;3.85;;;2.85;;
16385;SDS011;8302;51.154;4.456;2023-09-08T05:57:45;8.38;;;3.38;;
16385;SDS011;8302;51.154;4.456;2023-09-08T06:00:13;8.30;;;3.95;;
16385;SDS011;8302;51.154;4.456;2023-09-08T06:02:47;5.60;;;2.75;;
16385;SDS011;8302;51.154;4.456;2023-09-08T06:05:17;9.05;;;4.18;;
16385;SDS011;8302;51.154;4.456;2023-09-08T06:07:44;8.30;;;3.63;;
16385;SDS011;8302;51.154;4.456;2023-09-08T06:10:32;8.32;;;2.85;;
16385;SDS011;8302;51.154;4.456;2023-09-08T06:13:00;5.78;;;2.45;;
16385;SDS011;8302;51.154;4.456;2023-09-08T06:15:29;7.72;;;3.90;;
16385;SDS011;8302;51.154;4.456;2023-09-08T06:17:59;4.78;;;3.58;;
16385;SDS011;8302;51.154;4.456;2023-09-08T06:20:28;4.43;;;2.63;;
16385;SDS011;8302;51.154;4.456;2023-09-08T06:22:57;6.82;;;2.65;;
16385;SDS011;8302;51.154;4.456;2023-09-08T06:25:24;12.68;;;3.58;;
16385;SDS011;8302;51.154;4.456;2023-09-08T06:27:55;7.40;;;2.47;;
16385;SDS011;8302;51.154;4.456;2023-09-08T06:30:22;4.18;;;2.92;;
16385;SDS011;8302;51.154;4.456;2023-09-08T06:32:50;8.30;;;3.25;;
16385;SDS011;8302;51.154;4.456;2023-09-08T06:35:19;4.45;;;3.10;;
16385;SDS011;8302;51.154;4.456;2023-09-08T06:37:47;5.90;;;2.40;;
16385;SDS011;8302;51.154;4.456;2023-09-08T06:40:15;5.43;;;3.05;;
16385;SDS011;8302;51.154;4.456;2023-09-08T06:42:43;6.15;;;3.30;;
16385;SDS011;8302;51.154;4.456;2023-09-08T06:45:30;3.50;;;2.17;;
16385;SDS011;8302;51.154;4.456;2023-09-08T06:47:58;10.10;;;3.75;;
16385;SDS011;8302;51.154;4.456;2023-09-08T06:50:28;7.93;;;3.13;;
16385;SDS011;8302;51.154;4.456;2023-09-08T06:52:56;8.60;;;3.05;;
16385;SDS011;8302;51.154;4.456;2023-09-08T06:55:24;5.32;;;3.47;;
16385;SDS011;8302;51.154;4.456;2023-09-08T06:57:52;6.65;;;2.83;;
16385;SDS011;8302;51.154;4.456;2023-09-08T07:00:20;2.28;;;1.85;;
16385;SDS011;8302;51.154;4.456;2023-09-08T07:02:47;4.72;;;3.03;;
16385;SDS011;8302;51.154;4.456;2023-09-08T07:05:17;6.18;;;2.72;;
16385;SDS011;8302;51.154;4.456;2023-09-08T07:07:47;5.20;;;2.40;;
16385;SDS011;8302;51.154;4.456;2023-09-08T07:10:15;3.80;;;2.35;;
16385;SDS011;8302;51.154;4.456;2023-09-08T07:12:43;11.98;;;4.63;;
16385;SDS011;8302;51.154;4.456;2023-09-08T07:15:10;24.38;;;11.05;;
16385;SDS011;8302;51.154;4.456;2023-09-08T07:17:38;27.20;;;11.57;;
16385;SDS011;8302;51.154;4.456;2023-09-08T07:20:06;26.33;;;11.20;;
16385;SDS011;8302;51.154;4.456;2023-09-08T07:22:34;26.15;;;11.88;;
16385;SDS011;8302;51.154;4.456;2023-09-08T07:25:04;24.60;;;11.05;;
16385;SDS011;8302;51.154;4.456;2023-09-08T07:27:32;21.35;;;10.68;;
16385;SDS011;8302;51.154;4.456;2023-09-08T07:30:00;21.95;;;9.68;;
16385;SDS011;8302;51.154;4.456;2023-09-08T07:32:29;22.73;;;10.23;;
16385;SDS011;8302;51.154;4.456;2023-09-08T07:34:56;22.30;;;9.70;;
16385;SDS011;8302;51.154;4.456;2023-09-08T07:37:24;24.10;;;10.52;;
16385;SDS011;8302;51.154;4.456;2023-09-08T07:39:52;20.80;;;9.55;;
16385;SDS011;8302;51.154;4.456;2023-09-08T07:42:23;19.70;;;9.98;;
16385;SDS011;8302;51.154;4.456;2023-09-08T07:44:53;23.08;;;9.73;;
16385;SDS011;8302;51.154;4.456;2023-09-08T07:47:20;19.13;;;9.25;;
16385;SDS011;8302;51.154;4.456;2023-09-08T07:49:48;21.60;;;9.13;;
16385;SDS011;8302;51.154;4.456;2023-09-08T07:52:16;16.15;;;8.98;;
16385;SDS011;8302;51.154;4.456;2023-09-08T07:54:43;17.00;;;8.50;;
16385;SDS011;8302;51.154;4.456;2023-09-08T07:57:11;22.20;;;8.63;;
16385;SDS011;8302;51.154;4.456;2023-09-08T07:59:40;15.20;;;8.30;;
16385;SDS011;8302;51.154;4.456;2023-09-08T08:02:08;15.93;;;8.27;;
16385;SDS011;8302;51.154;4.456;2023-09-08T08:04:37;17.17;;;7.70;;
16385;SDS011;8302;51.154;4.456;2023-09-08T08:07:05;14.35;;;8.25;;
16385;SDS011;8302;51.154;4.456;2023-09-08T08:09:32;14.23;;;8.07;;
16385;SDS011;8302;51.154;4.456;2023-09-08T08:12:00;13.85;;;7.85;;
16385;SDS011;8302;51.154;4.456;2023-09-08T08:14:28;14.50;;;8.20;;
16385;SDS011;8302;51.154;4.456;2023-09-08T08:16:57;19.15;;;7.90;;
16385;SDS011;8302;51.154;4.456;2023-09-08T08:19:25;13.70;;;7.40;;
16385;SDS011;8302;51.154;4.456;2023-09-08T08:21:53;13.77;;;7.53;;
16385;SDS011;8302;51.154;4.456;2023-09-08T08:24:23;16.92;;;7.32;;
16385;SDS011;8302;51.154;4.456;2023-09-08T08:26:51;12.23;;;7.22;;
16385;SDS011;8302;51.154;4.456;2023-09-08T08:29:18;12.75;;;6.95;;
16385;SDS011;8302;51.154;4.456;2023-09-08T08:31:46;12.55;;;7.05;;
16385;SDS011;8302;51.154;4.456;2023-09-08T08:34:15;12.25;;;7.03;;
16385;SDS011;8302;51.154;4.456;2023-09-08T08:36:43;12.45;;;7.43;;
16385;SDS011;8302;51.154;4.456;2023-09-08T08:39:11;10.68;;;6.65;;
16385;SDS011;8302;51.154;4.456;2023-09-08T08:41:39;11.95;;;6.93;;
16385;SDS011;8302;51.154;4.456;2023-09-08T08:44:07;13.50;;;6.63;;
16385;SDS011;8302;51.154;4.456;2023-09-08T08:46:36;10.35;;;6.35;;
16385;SDS011;8302;51.154;4.456;2023-09-08T08:49:04;12.60;;;6.75;;
16385;SDS011;8302;51.154;4.456;2023-09-08T08:51:33;11.13;;;6.95;;
16385;SDS011;8302;51.154;4.456;2023-09-08T08:54:02;10.25;;;6.97;;
16385;SDS011;8302;51.154;4.456;2023-09-08T08:56:30;14.50;;;7.13;;
16385;SDS011;8302;51.154;4.456;2023-09-08T08:58:59;10.80;;;6.75;;
16385;SDS011;8302;51.154;4.456;2023-09-08T09:01:28;7.63;;;6.05;;
16385;SDS011;8302;51.154;4.456;2023-09-08T09:03:56;11.32;;;6.07;;
16385;SDS011;8302;51.154;4.456;2023-09-08T09:06:24;9.13;;;6.65;;
16385;SDS011;8302;51.154;4.456;2023-09-08T09:08:53;8.88;;;5.95;;
16385;SDS011;8302;51.154;4.456;2023-09-08T09:11:21;10.63;;;5.82;;
16385;SDS011;8302;51.154;4.456;2023-09-08T09:13:49;6.10;;;3.92;;
16385;SDS011;8302;51.154;4.456;2023-09-08T09:16:16;6.05;;;3.60;;
16385;SDS011;8302;51.154;4.456;2023-09-08T09:18:55;4.47;;;2.42;;
16385;SDS011;8302;51.154;4.456;2023-09-08T09:21:23;3.78;;;2.20;;
16385;SDS011;8302;51.154;4.456;2023-09-08T09:23:51;6.88;;;3.03;;
16385;SDS011;8302;51.154;4.456;2023-09-08T09:26:25;7.18;;;3.33;;
16385;SDS011;8302;51.154;4.456;2023-09-08T09:28:53;1.30;;;1.20;;
16385;SDS011;8302;51.154;4.456;2023-09-08T09:31:24;4.38;;;2.75;;
16385;SDS011;8302;51.154;4.456;2023-09-08T09:34:02;5.30;;;1.85;;
16385;SDS011;8302;51.154;4.456;2023-09-08T09:36:32;3.70;;;1.17;;
16385;SDS011;8302;51.154;4.456;2023-09-08T09:38:59;2.83;;;1.70;;
16385;SDS011;8302;51.154;4.456;2023-09-08T09:41:29;2.20;;;1.48;;
16385;SDS011;8302;51.154;4.456;2023-09-08T09:43:57;4.22;;;2.63;;
16385;SDS011;8302;51.154;4.456;2023-09-08T09:46:27;3.10;;;2.80;;
16385;SDS011;8302;51.154;4.456;2023-09-08T09:48:55;2.78;;;1.75;;
16385;SDS011;8302;51.154;4.456;2023-09-08T09:51:24;2.72;;;1.58;;
16385;SDS011;8302;51.154;4.456;2023-09-08T09:53:51;3.97;;;2.88;;
16385;SDS011;8302;51.154;4.456;2023-09-08T09:56:22;3.92;;;2.40;;
16385;SDS011;8302;51.154;4.456;2023-09-08T09:58:53;4.50;;;2.25;;
16385;SDS011;8302;51.154;4.456;2023-09-08T10:01:21;2.90;;;2.03;;
16385;SDS011;8302;51.154;4.456;2023-09-08T10:03:50;2.28;;;1.48;;
16385;SDS011;8302;51.154;4.456;2023-09-08T10:06:18;4.45;;;3.03;;
16385;SDS011;8302;51.154;4.456;2023-09-08T10:08:46;7.70;;;2.35;;
16385;SDS011;8302;51.154;4.456;2023-09-08T10:11:15;2.05;;;1.77;;
16385;SDS011;8302;51.154;4.456;2023-09-08T10:13:45;2.78;;;2.20;;
16385;SDS011;8302;51.154;4.456;2023-09-08T10:16:15;3.50;;;1.92;;
16385;SDS011;8302;51.154;4.456;2023-09-08T10:18:44;3.72;;;2.00;;
16385;SDS011;8302;51.154;4.456;2023-09-08T10:21:12;2.03;;;1.67;;
16385;SDS011;8302;51.154;4.456;2023-09-08T10:23:41;3.65;;;2.20;;
16385;SDS011;8302;51.154;4.456;2023-09-08T10:26:10;2.67;;;2.13;;
16385;SDS011;8302;51.154;4.456;2023-09-08T10:28:38;2.33;;;1.63;;
16385;SDS011;8302;51.154;4.456;2023-09-08T10:31:06;1.92;;;1.73;;
16385;SDS011;8302;51.154;4.456;2023-09-08T10:33:39;4.80;;;1.83;;
16385;SDS011;8302;51.154;4.456;2023-09-08T10:36:08;3.13;;;1.85;;
16385;SDS011;8302;51.154;4.456;2023-09-08T10:38:36;2.17;;;1.58;;
16385;SDS011;8302;51.154;4.456;2023-09-08T10:43:54;2.13;;;1.60;;
16385;SDS011;8302;51.154;4.456;2023-09-08T10:46:22;6.22;;;2.88;;
16385;SDS011;8302;51.154;4.456;2023-09-08T10:48:51;4.95;;;3.63;;
16385;SDS011;8302;51.154;4.456;2023-09-08T10:51:20;2.17;;;1.65;;
16385;SDS011;8302;51.154;4.456;2023-09-08T10:53:49;1.58;;;1.48;;
16385;SDS011;8302;51.154;4.456;2023-09-08T10:56:17;4.47;;;1.83;;
16385;SDS011;8302;51.154;4.456;2023-09-08T10:58:48;2.95;;;1.13;;
16385;SDS011;8302;51.154;4.456;2023-09-08T11:01:17;2.38;;;1.65;;
16385;SDS011;8302;51.154;4.456;2023-09-08T11:03:46;1.50;;;1.40;;
16385;SDS011;8302;51.154;4.456;2023-09-08T11:06:18;1.92;;;1.73;;
16385;SDS011;8302;51.154;4.456;2023-09-08T11:08:48;2.22;;;1.30;;
16385;SDS011;8302;51.154;4.456;2023-09-08T11:11:19;2.35;;;1.70;;
16385;SDS011;8302;51.154;4.456;2023-09-08T11:13:47;1.58;;;1.48;;
16385;SDS011;8302;51.154;4.456;2023-09-08T11:16:15;2.30;;;1.80;;
16385;SDS011;8302;51.154;4.456;2023-09-08T11:18:49;0.73;;;0.73;;
16385;SDS011;8302;51.154;4.456;2023-09-08T11:21:19;2.15;;;1.08;;
16385;SDS011;8302;51.154;4.456;2023-09-08T11:23:47;1.00;;;0.95;;
16385;SDS011;8302;51.154;4.456;2023-09-08T11:26:15;2.22;;;1.23;;
16385;SDS011;8302;51.154;4.456;2023-09-08T11:28:43;2.17;;;1.45;;
16385;SDS011;8302;51.154;4.456;2023-09-08T11:31:13;2.05;;;1.85;;
16385;SDS011;8302;51.154;4.456;2023-09-08T11:33:43;1.80;;;1.50;;
16385;SDS011;8302;51.154;4.456;2023-09-08T11:36:11;2.33;;;1.20;;
16385;SDS011;8302;51.154;4.456;2023-09-08T11:38:41;1.63;;;1.50;;
16385;SDS011;8302;51.154;4.456;2023-09-08T11:41:10;1.25;;;1.15;;
16385;SDS011;8302;51.154;4.456;2023-09-08T11:43:37;7.32;;;3.10;;
16385;SDS011;8302;51.154;4.456;2023-09-08T11:46:05;2.55;;;2.03;;
16385;SDS011;8302;51.154;4.456;2023-09-08T11:48:33;1.65;;;1.38;;
16385;SDS011;8302;51.154;4.456;2023-09-08T11:51:02;1.65;;;1.42;;
16385;SDS011;8302;51.154;4.456;2023-09-08T11:53:30;3.67;;;1.33;;
16385;SDS011;8302;51.154;4.456;2023-09-08T11:56:01;1.73;;;1.63;;
16385;SDS011;8302;51.154;4.456;2023-09-08T11:58:29;5.05;;;2.60;;
16385;SDS011;8302;51.154;4.456;2023-09-08T12:00:57;1.20;;;1.10;;
16385;SDS011;8302;51.154;4.456;2023-09-08T12:03:25;3.63;;;1.73;;
16385;SDS011;8302;51.154;4.456;2023-09-08T12:05:53;1.25;;;1.15;;
16385;SDS011;8302;51.154;4.456;2023-09-08T12:08:24;1.42;;;1.15;;
16385;SDS011;8302;51.154;4.456;2023-09-08T12:10:53;2.35;;;1.65;;
16385;SDS011;8302;51.154;4.456;2023-09-08T12:13:22;2.78;;;1.88;;
16385;SDS011;8302;51.154;4.456;2023-09-08T12:15:51;2.33;;;1.80;;
16385;SDS011;8302;51.154;4.456;2023-09-08T12:18:19;3.45;;;2.40;;
16385;SDS011;8302;51.154;4.456;2023-09-08T12:21:04;2.65;;;2.25;;
16385;SDS011;8302;51.154;4.456;2023-09-08T12:23:32;3.97;;;1.83;;
16385;SDS011;8302;51.154;4.456;2023-09-08T12:25:59;2.47;;;1.88;;
16385;SDS011;8302;51.154;4.456;2023-09-08T12:28:31;3.42;;;1.95;;
16385;SDS011;8302;51.154;4.456;2023-09-08T12:31:00;3.63;;;2.55;;
16385;SDS011;8302;51.154;4.456;2023-09-08T12:33:28;4.20;;;1.95;;
16385;SDS011;8302;51.154;4.456;2023-09-08T12:35:55;3.55;;;2.47;;
16385;SDS011;8302;51.154;4.456;2023-09-08T12:38:30;5.25;;;2.58;;
16385;SDS011;8302;51.154;4.456;2023-09-08T12:40:57;2.95;;;2.22;;
16385;SDS011;8302;51.154;4.456;2023-09-08T12:43:25;4.15;;;2.95;;
16385;SDS011;8302;51.154;4.456;2023-09-08T12:45:55;3.33;;;1.95;;
16385;SDS011;8302;51.154;4.456;2023-09-08T12:48:23;2.30;;;2.10;;
16385;SDS011;8302;51.154;4.456;2023-09-08T12:50:51;5.47;;;2.65;;
16385;SDS011;8302;51.154;4.456;2023-09-08T12:53:19;4.38;;;2.30;;
16385;SDS011;8302;51.154;4.456;2023-09-08T12:55:49;3.30;;;2.08;;
16385;SDS011;8302;51.154;4.456;2023-09-08T12:58:17;3.45;;;2.33;;
16385;SDS011;8302;51.154;4.456;2023-09-08T13:00:45;2.72;;;2.17;;
16385;SDS011;8302;51.154;4.456;2023-09-08T13:03:14;2.95;;;2.67;;
16385;SDS011;8302;51.154;4.456;2023-09-08T13:05:42;3.63;;;2.22;;
16385;SDS011;8302;51.154;4.456;2023-09-08T13:08:10;3.67;;;2.58;;
16385;SDS011;8302;51.154;4.456;2023-09-08T13:10:38;2.60;;;1.98;;
16385;SDS011;8302;51.154;4.456;2023-09-08T13:13:06;4.03;;;2.75;;
16385;SDS011;8302;51.154;4.456;2023-09-08T13:15:33;2.92;;;1.85;;
16385;SDS011;8302;51.154;4.456;2023-09-08T13:18:01;2.35;;;2.13;;
16385;SDS011;8302;51.154;4.456;2023-09-08T13:20:30;3.70;;;2.63;;
16385;SDS011;8302;51.154;4.456;2023-09-08T13:22:58;5.10;;;2.20;;
16385;SDS011;8302;51.154;4.456;2023-09-08T13:25:26;2.67;;;1.83;;
16385;SDS011;8302;51.154;4.456;2023-09-08T13:27:54;3.03;;;2.15;;
16385;SDS011;8302;51.154;4.456;2023-09-08T13:30:21;3.30;;;2.35;;
16385;SDS011;8302;51.154;4.456;2023-09-08T13:32:53;3.50;;;2.00;;
16385;SDS011;8302;51.154;4.456;2023-09-08T13:35:22;1.42;;;0.98;;
16385;SDS011;8302;51.154;4.456;2023-09-08T13:37:51;2.58;;;1.55;;
16385;SDS011;8302;51.154;4.456;2023-09-08T13:40:19;3.63;;;2.58;;
16385;SDS011;8302;51.154;4.456;2023-09-08T13:42:47;5.40;;;2.65;;
16385;SDS011;8302;51.154;4.456;2023-09-08T13:45:15;3.47;;;2.40;;
16385;SDS011;8302;51.154;4.456;2023-09-08T13:47:43;2.75;;;1.70;;
16385;SDS011;8302;51.154;4.456;2023-09-08T13:50:11;2.75;;;2.20;;
16385;SDS011;8302;51.154;4.456;2023-09-08T13:52:40;2.55;;;1.98;;
16385;SDS011;8302;51.154;4.456;2023-09-08T13:55:10;1.88;;;1.67;;
16385;SDS011;8302;51.154;4.456;2023-09-08T13:57:58;4.00;;;2.60;;
16385;SDS011;8302;51.154;4.456;2023-09-08T14:00:27;2.30;;;2.08;;
16385;SDS011;8302;51.154;4.456;2023-09-08T14:02:57;3.40;;;2.58;;
16385;SDS011;8302;51.154;4.456;2023-09-08T14:05:30;3.22;;;2.28;;
16385;SDS011;8302;51.154;4.456;2023-09-08T14:08:03;3.08;;;2.20;;
16385;SDS011;8302;51.154;4.456;2023-09-08T14:10:44;4.07;;;2.33;;
16385;SDS011;8302;51.154;4.456;2023-09-08T14:13:15;3.67;;;2.47;;
16385;SDS011;8302;51.154;4.456;2023-09-08T14:15:43;4.22;;;2.08;;
16385;SDS011;8302;51.154;4.456;2023-09-08T14:18:11;2.75;;;2.17;;
16385;SDS011;8302;51.154;4.456;2023-09-08T14:20:40;2.97;;;2.20;;
16385;SDS011;8302;51.154;4.456;2023-09-08T14:23:08;2.33;;;2.10;;
16385;SDS011;8302;51.154;4.456;2023-09-08T14:25:36;4.03;;;2.53;;
16385;SDS011;8302;51.154;4.456;2023-09-08T14:28:05;3.72;;;2.70;;
16385;SDS011;8302;51.154;4.456;2023-09-08T14:30:33;4.03;;;2.90;;
16385;SDS011;8302;51.154;4.456;2023-09-08T14:33:01;3.45;;;2.42;;
16385;SDS011;8302;51.154;4.456;2023-09-08T14:35:29;4.15;;;3.10;;
16385;SDS011;8302;51.154;4.456;2023-09-08T14:37:57;3.95;;;2.85;;
16385;SDS011;8302;51.154;4.456;2023-09-08T14:40:24;6.63;;;3.55;;
16385;SDS011;8302;51.154;4.456;2023-09-08T14:42:52;3.22;;;2.20;;
16385;SDS011;8302;51.154;4.456;2023-09-08T14:45:21;3.38;;;2.72;;
16385;SDS011;8302;51.154;4.456;2023-09-08T14:47:49;2.58;;;1.75;;
16385;SDS011;8302;51.154;4.456;2023-09-08T14:50:17;3.63;;;2.97;;
16385;SDS011;8302;51.154;4.456;2023-09-08T14:52:45;3.58;;;2.65;;
16385;SDS011;8302;51.154;4.456;2023-09-08T14:55:12;4.43;;;2.70;;
16385;SDS011;8302;51.154;4.456;2023-09-08T14:57:40;4.13;;;2.60;;
16385;SDS011;8302;51.154;4.456;2023-09-08T15:00:09;3.78;;;2.60;;
16385;SDS011;8302;51.154;4.456;2023-09-08T15:02:38;3.67;;;2.58;;
16385;SDS011;8302;51.154;4.456;2023-09-08T15:05:06;4.28;;;2.65;;
16385;SDS011;8302;51.154;4.456;2023-09-08T15:07:35;3.92;;;2.88;;
16385;SDS011;8302;51.154;4.456;2023-09-08T15:10:02;4.38;;;2.50;;
16385;SDS011;8302;51.154;4.456;2023-09-08T15:12:30;3.03;;;2.08;;
16385;SDS011;8302;51.154;4.456;2023-09-08T15:14:58;4.45;;;3.00;;